sensor_id;sensor_type;location;lat;lon;timestamp;P1;durP1;ratioP1;P2;durP2;ratioP2
58244;SDS011;44550;43.864;25.986;2024-03-02T00:03:52;20.42;;;8.68;;
58244;SDS011;44550;43.864;25.986;2024-03-02T00:08:16;12.20;;;7.75;;
58244;SDS011;44550;43.864;25.986;2024-03-02T00:12:56;19.60;;;8.32;;
58244;SDS011;44550;43.864;25.986;2024-03-02T00:22:50;16.88;;;8.55;;
58244;SDS011;44550;43.864;25.986;2024-03-02T00:32:13;9.10;;;6.47;;
58244;SDS011;44550;43.864;25.986;2024-03-02T00:36:33;15.15;;;6.38;;
58244;SDS011;44550;43.864;25.986;2024-03-02T00:41:22;18.88;;;8.68;;
58244;SDS011;44550;43.864;25.986;2024-03-02T00:50:01;15.25;;;7.53;;
58244;SDS011;44550;43.864;25.986;2024-03-02T00:54:54;14.75;;;7.65;;
58244;SDS011;44550;43.864;25.986;2024-03-02T00:59:39;18.65;;;12.18;;
58244;SDS011;44550;43.864;25.986;2024-03-02T01:04:05;17.50;;;11.13;;
58244;SDS011;44550;43.864;25.986;2024-03-02T01:08:36;17.98;;;9.00;;
58244;SDS011;44550;43.864;25.986;2024-03-02T01:12:55;18.73;;;10.68;;
58244;SDS011;44550;43.864;25.986;2024-03-02T01:17:22;17.17;;;8.35;;
58244;SDS011;44550;43.864;25.986;2024-03-02T01:21:44;8.93;;;7.13;;
58244;SDS011;44550;43.864;25.986;2024-03-02T01:26:12;16.30;;;9.02;;
58244;SDS011;44550;43.864;25.986;2024-03-02T01:30:47;20.75;;;11.18;;
58244;SDS011;44550;43.864;25.986;2024-03-02T01:39:30;10.95;;;7.85;;
58244;SDS011;44550;43.864;25.986;2024-03-02T01:43:53;26.23;;;13.70;;
58244;SDS011;44550;43.864;25.986;2024-03-02T01:48:23;18.25;;;10.32;;
58244;SDS011;44550;43.864;25.986;2024-03-02T01:52:42;23.45;;;11.55;;
58244;SDS011;44550;43.864;25.986;2024-03-02T01:57:25;28.42;;;16.38;;
58244;SDS011;44550;43.864;25.986;2024-03-02T02:01:31;24.55;;;13.70;;
58244;SDS011;44550;43.864;25.986;2024-03-02T02:10:19;33.78;;;22.35;;
58244;SDS011;44550;43.864;25.986;2024-03-02T02:14:47;37.42;;;21.08;;
58244;SDS011;44550;43.864;25.986;2024-03-02T02:19:04;29.83;;;16.63;;
58244;SDS011;44550;43.864;25.986;2024-03-02T02:23:36;35.58;;;16.45;;
58244;SDS011;44550;43.864;25.986;2024-03-02T02:32:34;21.35;;;11.50;;
58244;SDS011;44550;43.864;25.986;2024-03-02T02:37:26;21.17;;;8.60;;
58244;SDS011;44550;43.864;25.986;2024-03-02T02:42:05;32.40;;;19.13;;
58244;SDS011;44550;43.864;25.986;2024-03-02T02:46:21;39.15;;;20.73;;
58244;SDS011;44550;43.864;25.986;2024-03-02T02:51:23;48.15;;;28.00;;
58244;SDS011;44550;43.864;25.986;2024-03-02T02:55:39;39.90;;;25.25;;
58244;SDS011;44550;43.864;25.986;2024-03-02T02:59:57;45.42;;;19.08;;
58244;SDS011;44550;43.864;25.986;2024-03-02T03:04:38;29.58;;;18.55;;
58244;SDS011;44550;43.864;25.986;2024-03-02T03:08:51;35.13;;;19.83;;
58244;SDS011;44550;43.864;25.986;2024-03-02T03:13:12;28.58;;;18.80;;
58244;SDS011;44550;43.864;25.986;2024-03-02T03:17:38;33.38;;;20.15;;
58244;SDS011;44550;43.864;25.986;2024-03-02T03:22:19;38.08;;;21.10;;
58244;SDS011;44550;43.864;25.986;2024-03-02T03:26:36;37.97;;;18.50;;
58244;SDS011;44550;43.864;25.986;2024-03-02T03:31:05;30.77;;;16.77;;
58244;SDS011;44550;43.864;25.986;2024-03-02T03:41:07;34.85;;;21.75;;
58244;SDS011;44550;43.864;25.986;2024-03-02T03:45:50;44.50;;;22.17;;
58244;SDS011;44550;43.864;25.986;2024-03-02T03:49:59;30.45;;;17.17;;
58244;SDS011;44550;43.864;25.986;2024-03-02T03:54:19;30.15;;;16.75;;
58244;SDS011;44550;43.864;25.986;2024-03-02T03:58:37;32.72;;;15.30;;
58244;SDS011;44550;43.864;25.986;2024-03-02T04:02:51;20.35;;;12.52;;
58244;SDS011;44550;43.864;25.986;2024-03-02T04:07:12;38.55;;;14.13;;
58244;SDS011;44550;43.864;25.986;2024-03-02T04:11:34;29.02;;;14.15;;
58244;SDS011;44550;43.864;25.986;2024-03-02T04:16:03;33.30;;;13.48;;
58244;SDS011;44550;43.864;25.986;2024-03-02T04:21:17;24.60;;;15.82;;
58244;SDS011;44550;43.864;25.986;2024-03-02T04:25:54;28.90;;;15.13;;
58244;SDS011;44550;43.864;25.986;2024-03-02T04:30:26;25.70;;;15.02;;
58244;SDS011;44550;43.864;25.986;2024-03-02T04:35:14;41.22;;;17.35;;
58244;SDS011;44550;43.864;25.986;2024-03-02T04:39:27;36.58;;;18.63;;
58244;SDS011;44550;43.864;25.986;2024-03-02T04:44:12;25.77;;;15.80;;
58244;SDS011;44550;43.864;25.986;2024-03-02T04:48:23;26.88;;;15.13;;
58244;SDS011;44550;43.864;25.986;2024-03-02T04:52:51;30.52;;;14.85;;
58244;SDS011;44550;43.864;25.986;2024-03-02T04:57:25;32.63;;;16.17;;
58244;SDS011;44550;43.864;25.986;2024-03-02T05:01:44;29.77;;;15.35;;
58244;SDS011;44550;43.864;25.986;2024-03-02T05:06:01;15.85;;;10.77;;
58244;SDS011;44550;43.864;25.986;2024-03-02T05:10:22;21.27;;;11.73;;
58244;SDS011;44550;43.864;25.986;2024-03-02T05:14:55;23.90;;;12.37;;
58244;SDS011;44550;43.864;25.986;2024-03-02T05:19:11;18.95;;;10.70;;
58244;SDS011;44550;43.864;25.986;2024-03-02T05:23:25;25.15;;;15.43;;
58244;SDS011;44550;43.864;25.986;2024-03-02T05:33:02;20.85;;;12.15;;
58244;SDS011;44550;43.864;25.986;2024-03-02T05:46:29;24.58;;;14.18;;
58244;SDS011;44550;43.864;25.986;2024-03-02T05:50:57;23.23;;;12.43;;
58244;SDS011;44550;43.864;25.986;2024-03-02T05:55:29;28.75;;;14.25;;
58244;SDS011;44550;43.864;25.986;2024-03-02T05:59:56;18.88;;;11.93;;
58244;SDS011;44550;43.864;25.986;2024-03-02T06:04:20;28.17;;;13.65;;
58244;SDS011;44550;43.864;25.986;2024-03-02T06:08:52;19.55;;;11.98;;
58244;SDS011;44550;43.864;25.986;2024-03-02T06:12:59;21.00;;;11.93;;
58244;SDS011;44550;43.864;25.986;2024-03-02T06:17:13;20.67;;;12.15;;
58244;SDS011;44550;43.864;25.986;2024-03-02T06:21:54;18.77;;;11.60;;
58244;SDS011;44550;43.864;25.986;2024-03-02T06:27:00;17.98;;;9.88;;
58244;SDS011;44550;43.864;25.986;2024-03-02T06:31:47;32.83;;;14.07;;
58244;SDS011;44550;43.864;25.986;2024-03-02T06:36:08;21.92;;;12.35;;
58244;SDS011;44550;43.864;25.986;2024-03-02T06:49:59;13.60;;;10.10;;
58244;SDS011;44550;43.864;25.986;2024-03-02T06:54:38;25.23;;;12.93;;
58244;SDS011;44550;43.864;25.986;2024-03-02T06:59:39;19.20;;;11.50;;
58244;SDS011;44550;43.864;25.986;2024-03-02T07:14:31;19.98;;;9.05;;
58244;SDS011;44550;43.864;25.986;2024-03-02T07:19:20;24.42;;;11.68;;
58244;SDS011;44550;43.864;25.986;2024-03-02T07:24:18;28.15;;;13.07;;
58244;SDS011;44550;43.864;25.986;2024-03-02T07:43:44;16.88;;;10.43;;
58244;SDS011;44550;43.864;25.986;2024-03-02T07:48:18;19.98;;;10.88;;
58244;SDS011;44550;43.864;25.986;2024-03-02T07:53:05;20.73;;;13.60;;
58244;SDS011;44550;43.864;25.986;2024-03-02T07:57:33;20.23;;;8.10;;
58244;SDS011;44550;43.864;25.986;2024-03-02T08:02:28;15.07;;;8.40;;
58244;SDS011;44550;43.864;25.986;2024-03-02T08:06:59;23.38;;;10.27;;
58244;SDS011;44550;43.864;25.986;2024-03-02T08:11:26;17.33;;;12.50;;
58244;SDS011;44550;43.864;25.986;2024-03-02T08:20:59;20.52;;;10.32;;
58244;SDS011;44550;43.864;25.986;2024-03-02T08:25:32;24.63;;;11.40;;
58244;SDS011;44550;43.864;25.986;2024-03-02T08:30:00;17.70;;;10.90;;
58244;SDS011;44550;43.864;25.986;2024-03-02T08:34:28;23.92;;;11.02;;
58244;SDS011;44550;43.864;25.986;2024-03-02T08:39:36;18.33;;;12.15;;
58244;SDS011;44550;43.864;25.986;2024-03-02T08:43:55;39.42;;;13.20;;
58244;SDS011;44550;43.864;25.986;2024-03-02T08:53:59;21.92;;;11.88;;
58244;SDS011;44550;43.864;25.986;2024-03-02T09:08:46;13.60;;;7.38;;
58244;SDS011;44550;43.864;25.986;2024-03-02T09:13:09;19.88;;;10.73;;
58244;SDS011;44550;43.864;25.986;2024-03-02T09:22:32;17.33;;;12.13;;
58244;SDS011;44550;43.864;25.986;2024-03-02T09:27:10;21.35;;;11.50;;
58244;SDS011;44550;43.864;25.986;2024-03-02T09:31:26;24.83;;;11.75;;
58244;SDS011;44550;43.864;25.986;2024-03-02T09:35:34;18.00;;;9.75;;
58244;SDS011;44550;43.864;25.986;2024-03-02T09:40:07;15.00;;;9.52;;
58244;SDS011;44550;43.864;25.986;2024-03-02T09:44:31;16.95;;;8.57;;
58244;SDS011;44550;43.864;25.986;2024-03-02T09:49:10;15.98;;;10.07;;
58244;SDS011;44550;43.864;25.986;2024-03-02T09:53:31;17.13;;;10.85;;
58244;SDS011;44550;43.864;25.986;2024-03-02T09:57:53;23.15;;;11.98;;
58244;SDS011;44550;43.864;25.986;2024-03-02T10:12:14;20.10;;;12.88;;
58244;SDS011;44550;43.864;25.986;2024-03-02T10:16:35;19.48;;;14.15;;
58244;SDS011;44550;43.864;25.986;2024-03-02T10:25:58;25.17;;;12.95;;
58244;SDS011;44550;43.864;25.986;2024-03-02T10:30:22;14.82;;;11.15;;
58244;SDS011;44550;43.864;25.986;2024-03-02T10:34:42;26.75;;;13.25;;
58244;SDS011;44550;43.864;25.986;2024-03-02T10:39:08;23.30;;;12.77;;
58244;SDS011;44550;43.864;25.986;2024-03-02T10:43:56;26.33;;;13.75;;
58244;SDS011;44550;43.864;25.986;2024-03-02T10:48:36;20.85;;;11.30;;
58244;SDS011;44550;43.864;25.986;2024-03-02T10:57:45;25.95;;;12.40;;
58244;SDS011;44550;43.864;25.986;2024-03-02T11:06:46;18.73;;;12.75;;
58244;SDS011;44550;43.864;25.986;2024-03-02T11:10:57;20.33;;;12.20;;
58244;SDS011;44550;43.864;25.986;2024-03-02T11:15:31;21.85;;;13.43;;
58244;SDS011;44550;43.864;25.986;2024-03-02T11:19:40;28.50;;;12.95;;
58244;SDS011;44550;43.864;25.986;2024-03-02T11:23:53;19.25;;;12.82;;
58244;SDS011;44550;43.864;25.986;2024-03-02T11:28:12;23.05;;;13.02;;
58244;SDS011;44550;43.864;25.986;2024-03-02T11:37:35;21.85;;;12.60;;
58244;SDS011;44550;43.864;25.986;2024-03-02T11:41:50;20.50;;;12.48;;
58244;SDS011;44550;43.864;25.986;2024-03-02T11:45:59;22.35;;;12.48;;
58244;SDS011;44550;43.864;25.986;2024-03-02T11:50:18;18.63;;;11.20;;
58244;SDS011;44550;43.864;25.986;2024-03-02T11:54:40;20.27;;;13.32;;
58244;SDS011;44550;43.864;25.986;2024-03-02T11:59:19;22.70;;;11.97;;
58244;SDS011;44550;43.864;25.986;2024-03-02T12:03:27;26.13;;;14.57;;
58244;SDS011;44550;43.864;25.986;2024-03-02T12:07:58;15.80;;;11.52;;
58244;SDS011;44550;43.864;25.986;2024-03-02T12:12:37;18.48;;;10.75;;
58244;SDS011;44550;43.864;25.986;2024-03-02T12:16:49;22.40;;;12.02;;
58244;SDS011;44550;43.864;25.986;2024-03-02T12:21:12;24.10;;;12.43;;
58244;SDS011;44550;43.864;25.986;2024-03-02T12:25:52;21.63;;;15.18;;
58244;SDS011;44550;43.864;25.986;2024-03-02T12:30:29;26.55;;;16.40;;
58244;SDS011;44550;43.864;25.986;2024-03-02T12:35:55;24.88;;;14.95;;
58244;SDS011;44550;43.864;25.986;2024-03-02T12:46:18;19.85;;;13.90;;
58244;SDS011;44550;43.864;25.986;2024-03-02T12:51:07;30.63;;;17.63;;
58244;SDS011;44550;43.864;25.986;2024-03-02T13:00:44;37.85;;;22.80;;
58244;SDS011;44550;43.864;25.986;2024-03-02T13:05:04;18.13;;;12.32;;
58244;SDS011;44550;43.864;25.986;2024-03-02T13:09:15;33.17;;;18.60;;
58244;SDS011;44550;43.864;25.986;2024-03-02T13:18:21;16.17;;;11.07;;
58244;SDS011;44550;43.864;25.986;2024-03-02T13:22:59;16.65;;;10.75;;
58244;SDS011;44550;43.864;25.986;2024-03-02T13:27:34;20.45;;;12.57;;
58244;SDS011;44550;43.864;25.986;2024-03-02T13:31:45;17.88;;;12.07;;
58244;SDS011;44550;43.864;25.986;2024-03-02T13:35:56;18.20;;;12.07;;
58244;SDS011;44550;43.864;25.986;2024-03-02T13:40:09;12.85;;;10.48;;
58244;SDS011;44550;43.864;25.986;2024-03-02T13:44:28;16.65;;;10.60;;
58244;SDS011;44550;43.864;25.986;2024-03-02T13:48:37;17.55;;;11.77;;
58244;SDS011;44550;43.864;25.986;2024-03-02T13:52:59;21.83;;;13.30;;
58244;SDS011;44550;43.864;25.986;2024-03-02T13:57:04;18.17;;;11.83;;
58244;SDS011;44550;43.864;25.986;2024-03-02T14:01:38;15.93;;;11.88;;
58244;SDS011;44550;43.864;25.986;2024-03-02T14:06:38;16.17;;;11.13;;
58244;SDS011;44550;43.864;25.986;2024-03-02T14:11:19;17.10;;;10.60;;
58244;SDS011;44550;43.864;25.986;2024-03-02T14:15:39;14.77;;;9.75;;
58244;SDS011;44550;43.864;25.986;2024-03-02T14:20:12;17.40;;;9.18;;
58244;SDS011;44550;43.864;25.986;2024-03-02T14:24:40;17.33;;;9.55;;
58244;SDS011;44550;43.864;25.986;2024-03-02T14:29:20;18.13;;;8.23;;
58244;SDS011;44550;43.864;25.986;2024-03-02T14:33:54;15.50;;;9.15;;
58244;SDS011;44550;43.864;25.986;2024-03-02T14:38:39;12.13;;;8.50;;
58244;SDS011;44550;43.864;25.986;2024-03-02T14:43:07;11.23;;;8.73;;
58244;SDS011;44550;43.864;25.986;2024-03-02T14:53:08;13.55;;;9.55;;
58244;SDS011;44550;43.864;25.986;2024-03-02T14:57:40;13.38;;;8.88;;
58244;SDS011;44550;43.864;25.986;2024-03-02T15:02:11;16.88;;;9.55;;
58244;SDS011;44550;43.864;25.986;2024-03-02T15:06:28;14.85;;;10.02;;
58244;SDS011;44550;43.864;25.986;2024-03-02T15:10:59;14.40;;;8.80;;
58244;SDS011;44550;43.864;25.986;2024-03-02T15:15:33;19.92;;;10.35;;
58244;SDS011;44550;43.864;25.986;2024-03-02T15:20:20;19.00;;;11.70;;
58244;SDS011;44550;43.864;25.986;2024-03-02T15:24:56;19.90;;;13.77;;
58244;SDS011;44550;43.864;25.986;2024-03-02T15:29:11;27.05;;;14.07;;
58244;SDS011;44550;43.864;25.986;2024-03-02T15:33:48;21.85;;;12.57;;
58244;SDS011;44550;43.864;25.986;2024-03-02T15:38:00;25.98;;;13.15;;
58244;SDS011;44550;43.864;25.986;2024-03-02T15:42:46;20.03;;;11.27;;
58244;SDS011;44550;43.864;25.986;2024-03-02T15:47:01;17.73;;;13.05;;
58244;SDS011;44550;43.864;25.986;2024-03-02T15:51:29;18.13;;;11.25;;
58244;SDS011;44550;43.864;25.986;2024-03-02T15:55:48;47.78;;;12.32;;
58244;SDS011;44550;43.864;25.986;2024-03-02T16:00:28;17.33;;;11.32;;
58244;SDS011;44550;43.864;25.986;2024-03-02T16:04:45;15.77;;;10.93;;
58244;SDS011;44550;43.864;25.986;2024-03-02T16:09:01;19.27;;;12.23;;
58244;SDS011;44550;43.864;25.986;2024-03-02T16:13:22;14.67;;;10.50;;
58244;SDS011;44550;43.864;25.986;2024-03-02T16:17:35;21.25;;;12.73;;
58244;SDS011;44550;43.864;25.986;2024-03-02T16:22:03;23.05;;;12.20;;
58244;SDS011;44550;43.864;25.986;2024-03-02T16:26:14;24.42;;;15.32;;
58244;SDS011;44550;43.864;25.986;2024-03-02T16:30:19;26.55;;;13.45;;
58244;SDS011;44550;43.864;25.986;2024-03-02T16:34:34;22.88;;;14.10;;
58244;SDS011;44550;43.864;25.986;2024-03-02T16:38:39;28.13;;;13.85;;
58244;SDS011;44550;43.864;25.986;2024-03-02T16:42:54;26.08;;;15.05;;
58244;SDS011;44550;43.864;25.986;2024-03-02T16:47:25;25.92;;;13.35;;
58244;SDS011;44550;43.864;25.986;2024-03-02T16:51:40;21.70;;;13.10;;
58244;SDS011;44550;43.864;25.986;2024-03-02T16:55:50;30.38;;;16.40;;
58244;SDS011;44550;43.864;25.986;2024-03-02T17:00:09;20.38;;;14.85;;
58244;SDS011;44550;43.864;25.986;2024-03-02T17:04:24;22.38;;;13.60;;
58244;SDS011;44550;43.864;25.986;2024-03-02T17:08:36;20.08;;;13.00;;
58244;SDS011;44550;43.864;25.986;2024-03-02T17:12:54;19.88;;;12.30;;
58244;SDS011;44550;43.864;25.986;2024-03-02T17:17:03;32.87;;;13.47;;
58244;SDS011;44550;43.864;25.986;2024-03-02T17:21:15;16.38;;;11.98;;
58244;SDS011;44550;43.864;25.986;2024-03-02T17:30:43;22.15;;;14.63;;
58244;SDS011;44550;43.864;25.986;2024-03-02T17:35:04;21.08;;;15.00;;
58244;SDS011;44550;43.864;25.986;2024-03-02T17:39:14;21.90;;;14.38;;
58244;SDS011;44550;43.864;25.986;2024-03-02T17:43:20;25.45;;;16.73;;
58244;SDS011;44550;43.864;25.986;2024-03-02T17:47:44;24.88;;;15.15;;
58244;SDS011;44550;43.864;25.986;2024-03-02T17:51:49;26.08;;;17.42;;
58244;SDS011;44550;43.864;25.986;2024-03-02T17:56:14;23.88;;;16.42;;
58244;SDS011;44550;43.864;25.986;2024-03-02T18:00:36;24.23;;;16.70;;
58244;SDS011;44550;43.864;25.986;2024-03-02T18:04:44;28.85;;;17.25;;
58244;SDS011;44550;43.864;25.986;2024-03-02T18:08:55;26.05;;;17.48;;
58244;SDS011;44550;43.864;25.986;2024-03-02T18:13:01;26.30;;;17.42;;
58244;SDS011;44550;43.864;25.986;2024-03-02T18:17:09;27.90;;;16.55;;
58244;SDS011;44550;43.864;25.986;2024-03-02T18:21:21;28.48;;;16.08;;
58244;SDS011;44550;43.864;25.986;2024-03-02T18:25:27;24.65;;;15.52;;
58244;SDS011;44550;43.864;25.986;2024-03-02T18:29:29;22.73;;;14.32;;
58244;SDS011;44550;43.864;25.986;2024-03-02T18:33:30;24.88;;;16.90;;
58244;SDS011;44550;43.864;25.986;2024-03-02T18:37:35;25.77;;;15.30;;
58244;SDS011;44550;43.864;25.986;2024-03-02T18:41:37;29.98;;;15.85;;
58244;SDS011;44550;43.864;25.986;2024-03-02T18:45:41;22.02;;;14.70;;
58244;SDS011;44550;43.864;25.986;2024-03-02T18:49:46;26.85;;;15.07;;
58244;SDS011;44550;43.864;25.986;2024-03-02T18:54:09;24.42;;;14.68;;
58244;SDS011;44550;43.864;25.986;2024-03-02T18:58:10;21.27;;;15.57;;
58244;SDS011;44550;43.864;25.986;2024-03-02T19:02:10;37.60;;;17.35;;
58244;SDS011;44550;43.864;25.986;2024-03-02T19:06:19;23.52;;;16.20;;
58244;SDS011;44550;43.864;25.986;2024-03-02T19:10:41;30.08;;;17.83;;
58244;SDS011;44550;43.864;25.986;2024-03-02T19:14:56;32.23;;;16.27;;
58244;SDS011;44550;43.864;25.986;2024-03-02T19:19:02;28.52;;;16.98;;
58244;SDS011;44550;43.864;25.986;2024-03-02T19:23:09;33.92;;;17.75;;
58244;SDS011;44550;43.864;25.986;2024-03-02T19:27:31;37.55;;;18.50;;
58244;SDS011;44550;43.864;25.986;2024-03-02T19:31:34;24.35;;;15.30;;
58244;SDS011;44550;43.864;25.986;2024-03-02T19:35:35;27.60;;;16.60;;
58244;SDS011;44550;43.864;25.986;2024-03-02T19:39:35;25.42;;;15.63;;
58244;SDS011;44550;43.864;25.986;2024-03-02T19:43:41;28.23;;;16.30;;
58244;SDS011;44550;43.864;25.986;2024-03-02T19:47:43;27.95;;;16.75;;
58244;SDS011;44550;43.864;25.986;2024-03-02T19:51:47;30.02;;;18.15;;
58244;SDS011;44550;43.864;25.986;2024-03-02T19:55:50;26.25;;;17.08;;
58244;SDS011;44550;43.864;25.986;2024-03-02T19:59:56;25.63;;;17.30;;
58244;SDS011;44550;43.864;25.986;2024-03-02T20:04:04;25.40;;;17.63;;
58244;SDS011;44550;43.864;25.986;2024-03-02T20:08:20;23.75;;;17.20;;
58244;SDS011;44550;43.864;25.986;2024-03-02T20:12:21;26.27;;;16.45;;
58244;SDS011;44550;43.864;25.986;2024-03-02T20:16:28;31.35;;;17.88;;
58244;SDS011;44550;43.864;25.986;2024-03-02T20:20:31;26.33;;;17.55;;
58244;SDS011;44550;43.864;25.986;2024-03-02T20:24:30;28.40;;;18.25;;
58244;SDS011;44550;43.864;25.986;2024-03-02T20:28:38;31.70;;;17.35;;
58244;SDS011;44550;43.864;25.986;2024-03-02T20:32:50;29.67;;;17.27;;
58244;SDS011;44550;43.864;25.986;2024-03-02T20:37:10;34.92;;;18.63;;
58244;SDS011;44550;43.864;25.986;2024-03-02T20:41:18;34.92;;;18.33;;
58244;SDS011;44550;43.864;25.986;2024-03-02T20:45:25;30.73;;;18.70;;
58244;SDS011;44550;43.864;25.986;2024-03-02T20:49:28;31.98;;;19.30;;
58244;SDS011;44550;43.864;25.986;2024-03-02T20:53:31;30.80;;;18.65;;
58244;SDS011;44550;43.864;25.986;2024-03-02T20:57:36;29.42;;;18.48;;
58244;SDS011;44550;43.864;25.986;2024-03-02T21:01:46;29.38;;;19.98;;
58244;SDS011;44550;43.864;25.986;2024-03-02T21:06:04;28.08;;;17.75;;
58244;SDS011;44550;43.864;25.986;2024-03-02T21:10:05;31.50;;;18.92;;
58244;SDS011;44550;43.864;25.986;2024-03-02T21:14:26;26.85;;;18.25;;
58244;SDS011;44550;43.864;25.986;2024-03-02T21:18:33;25.60;;;17.02;;
58244;SDS011;44550;43.864;25.986;2024-03-02T21:22:39;24.95;;;18.55;;
58244;SDS011;44550;43.864;25.986;2024-03-02T21:26:47;32.58;;;19.70;;
58244;SDS011;44550;43.864;25.986;2024-03-02T21:35:53;41.65;;;23.30;;
58244;SDS011;44550;43.864;25.986;2024-03-02T21:40:09;30.70;;;20.52;;
58244;SDS011;44550;43.864;25.986;2024-03-02T21:44:38;40.10;;;23.02;;
58244;SDS011;44550;43.864;25.986;2024-03-02T21:48:43;31.48;;;20.30;;
58244;SDS011;44550;43.864;25.986;2024-03-02T21:52:50;38.88;;;21.48;;
58244;SDS011;44550;43.864;25.986;2024-03-02T21:56:58;33.03;;;19.88;;
58244;SDS011;44550;43.864;25.986;2024-03-02T22:01:07;33.90;;;20.70;;
58244;SDS011;44550;43.864;25.986;2024-03-02T22:05:19;35.05;;;20.60;;
58244;SDS011;44550;43.864;25.986;2024-03-02T22:09:31;35.03;;;21.00;;
58244;SDS011;44550;43.864;25.986;2024-03-02T22:14:02;30.52;;;19.35;;
58244;SDS011;44550;43.864;25.986;2024-03-02T22:18:11;39.80;;;21.73;;
58244;SDS011;44550;43.864;25.986;2024-03-02T22:22:14;33.95;;;21.77;;
58244;SDS011;44550;43.864;25.986;2024-03-02T22:26:15;47.55;;;25.60;;
58244;SDS011;44550;43.864;25.986;2024-03-02T22:30:31;42.90;;;24.85;;
58244;SDS011;44550;43.864;25.986;2024-03-02T22:34:35;35.97;;;22.42;;
58244;SDS011;44550;43.864;25.986;2024-03-02T22:38:48;36.22;;;21.17;;
58244;SDS011;44550;43.864;25.986;2024-03-02T22:42:50;37.85;;;20.73;;
58244;SDS011;44550;43.864;25.986;2024-03-02T22:46:59;37.85;;;23.15;;
58244;SDS011;44550;43.864;25.986;2024-03-02T22:55:11;45.65;;;22.65;;
58244;SDS011;44550;43.864;25.986;2024-03-02T22:59:12;37.60;;;22.55;;
58244;SDS011;44550;43.864;25.986;2024-03-02T23:03:17;40.30;;;24.30;;
58244;SDS011;44550;43.864;25.986;2024-03-02T23:07:20;37.42;;;23.08;;
58244;SDS011;44550;43.864;25.986;2024-03-02T23:11:29;32.95;;;20.98;;
58244;SDS011;44550;43.864;25.986;2024-03-02T23:15:51;36.97;;;22.55;;
58244;SDS011;44550;43.864;25.986;2024-03-02T23:19:55;38.80;;;20.38;;
58244;SDS011;44550;43.864;25.986;2024-03-02T23:24:25;36.88;;;20.63;;
58244;SDS011;44550;43.864;25.986;2024-03-02T23:28:38;37.13;;;22.52;;
58244;SDS011;44550;43.864;25.986;2024-03-02T23:32:41;38.63;;;22.80;;
58244;SDS011;44550;43.864;25.986;2024-03-02T23:37:05;40.45;;;22.58;;
58244;SDS011;44550;43.864;25.986;2024-03-02T23:41:08;41.13;;;20.10;;
58244;SDS011;44550;43.864;25.986;2024-03-02T23:45:19;44.15;;;21.60;;
58244;SDS011;44550;43.864;25.986;2024-03-02T23:49:22;43.95;;;24.50;;
58244;SDS011;44550;43.864;25.986;2024-03-02T23:53:34;40.25;;;25.95;;
58244;SDS011;44550;43.864;25.986;2024-03-02T23:57:51;41.65;;;26.05;;
